Torm Republican — OYNE2 — position and weather

sailwx.info

Track history (hours):
 
Tides and Currents Weather Stations Pressure Air Temp Water Temp Dewpoint Dewpoint Depression Visibility Wind Speed Wind Dir Waves Ship Positions

Torm Republican

Last reported at 2016-Feb-09 05:20 UTC. Time now 2016-Feb-12 18:12 UTC.
Position N 36°11' E 014°51'.

Length 183 m; draft 11.8 m.

Type: Ship (hazmat cat A). MMSI: 220560000.

Date/timePositionNaut miles runAvg speedWind from/ knotsBaromVisibWave heightAir tempDewpointWater temp
2016-Feb-09 05:20N 36°11' E 014°51'1012.7
2016-Feb-09 04:33N 36°15' E 014°40'1312.7
2016-Feb-09 03:33N 36°19' E 014°25'1313.0
2016-Feb-09 02:33N 36°23' E 014°09'1613.4
2016-Feb-09 01:21N 36°28' E 013°51'  
2016-Feb-06 00:25N 36°01' W 005°06'1214.1
2016-Feb-05 23:33N 35°58' W 005°20'8211.7
2016-Feb-05 16:32N 36°04' W 007°02'1312.1
2016-Feb-05 15:30N 36°06' W 007°17'1312.2
2016-Feb-05 14:28N 36°09' W 007°32'3512.1
2016-Feb-05 11:33N 36°17' W 008°14'1212.0
2016-Feb-05 10:33N 36°20' W 008°29'1211.6
2016-Feb-05 09:33N 36°23' W 008°43'1211.1
2016-Feb-05 08:30N 36°25' W 008°57'1111.1
2016-Feb-05 07:33N 36°28' W 009°10'1311.2
2016-Feb-05 06:21N 36°34' W 009°25'911.0
2016-Feb-05 05:30N 36°41' W 009°33'1010.9
2016-Feb-05 04:33N 36°50' W 009°39'1211.7
2016-Feb-05 03:30N 37°01' W 009°43'1211.1
2016-Feb-05 02:26N 37°13' W 009°46'1112.9
2016-Feb-05 01:33N 37°24' W 009°49'1211.5
2016-Feb-05 00:33N 37°35' W 009°52'1413.6
2016-Feb-04 23:32N 37°49' W 009°56'1312.3
2016-Feb-04 22:30N 38°01' W 009°60'1312.6
2016-Feb-04 21:27N 38°14' W 010°04'1213.0
2016-Feb-04 20:33N 38°26' W 010°07'1312.8
2016-Feb-04 19:33N 38°38' W 010°11'1611.7
2016-Feb-04 18:12N 38°54' W 010°12'812.6
2016-Feb-04 17:33N 39°02' W 010°12'1313.3
2016-Feb-04 16:33N 39°15' W 010°12'1312.9
2016-Feb-04 15:33N 39°28' W 010°12'1313.0
2016-Feb-04 14:33N 39°41' W 010°11'1212.1
2016-Feb-04 13:33N 39°53' W 010°11'1913.2
2016-Feb-04 12:06N 40°12' W 010°12'711.9
2016-Feb-04 11:33N 40°19' W 010°12'1413.1
2016-Feb-04 10:30N 40°33' W 010°12'1213.0
2016-Feb-04 09:33N 40°45' W 010°12'1212.2
2016-Feb-04 08:33N 40°57' W 010°12'1312.6
2016-Feb-04 07:33N 41°10' W 010°12'1312.7
2016-Feb-04 06:33N 41°23' W 010°13'1312.8
2016-Feb-04 05:33N 41°35' W 010°13'1211.8
2016-Feb-04 04:30N 41°48' W 010°12'  
2016-Feb-01 11:22N 50°26' W 000°20'8 9.3
2016-Feb-01 10:28N 50°28' W 000°07'9 9.9
2016-Feb-01 09:33N 50°30' E 000°06'1110.8
2016-Feb-01 08:33N 50°32' E 000°23'1111.1
2016-Feb-01 07:33N 50°37' E 000°39'1111.1
2016-Feb-01 06:33N 50°43' E 000°53'1110.6
2016-Feb-01 05:33N 50°49' E 001°07'10 9.8
2016-Feb-01 04:33N 50°55' E 001°19'10 9.6
2016-Feb-01 03:33N 51°03' E 001°29'1110.8
2016-Feb-01 02:33N 51°10' E 001°41'1212.1
2016-Feb-01 01:33N 51°21' E 001°51'1313.0
2016-Feb-01 00:33N 51°32' E 002°02'1412.8
2016-Jan-31 23:27N 51°41' E 002°19'7610.9
2016-Jan-31 16:27N 52°31' E 003°53'1112.3
2016-Jan-31 15:33N 52°31' E 004°11'1110.7
2016-Jan-31 14:33N 52°29' E 004°28'5 5.2
2016-Jan-31 13:33N 52°28' E 004°37'4 4.3
2016-Jan-31 12:34N 52°26' E 004°43'3 2.9
2016-Jan-31 11:32N 52°24' E 004°46'0 0.0
2016-Jan-31 10:32N 52°24' E 004°46'0 0.0
2016-Jan-31 09:32N 52°24' E 004°46'0 0.0
2016-Jan-31 08:32N 52°24' E 004°46'0 0.0
2016-Jan-31 07:32N 52°24' E 004°46'0 0.0
2016-Jan-31 06:32N 52°24' E 004°46'0 0.0
2016-Jan-31 05:32N 52°24' E 004°46'0 0.0
2016-Jan-31 04:32N 52°24' E 004°46'0 0.0
2016-Jan-31 03:32N 52°24' E 004°46'0 0.0
2016-Jan-31 02:32N 52°24' E 004°46'0 0.0
2016-Jan-31 01:32N 52°24' E 004°46'0 0.0
2016-Jan-31 00:32N 52°24' E 004°46'0 0.0
2016-Jan-30 23:32N 52°24' E 004°46'0 0.0
2016-Jan-30 22:32N 52°24' E 004°46'0 0.0
2016-Jan-30 21:32N 52°24' E 004°46'0 0.0
2016-Jan-30 20:32N 52°24' E 004°46'0 0.0
2016-Jan-30 19:29N 52°24' E 004°46'0 0.0
2016-Jan-30 18:32N 52°24' E 004°46'0 0.0
2016-Jan-30 17:32N 52°24' E 004°46'0 0.0
2016-Jan-30 16:32N 52°24' E 004°46'0 0.0
2016-Jan-30 15:32N 52°24' E 004°46'0 0.0
2016-Jan-30 14:32N 52°24' E 004°46'0 0.0
2016-Jan-30 13:29N 52°24' E 004°46'0 0.0
2016-Jan-30 12:32N 52°24' E 004°46'0 0.0
2016-Jan-30 11:32N 52°24' E 004°46'0 0.0
2016-Jan-30 10:32N 52°24' E 004°46'0 0.0
2016-Jan-30 09:32N 52°24' E 004°46'0 0.0
2016-Jan-30 08:32N 52°24' E 004°46'0 0.0
2016-Jan-30 07:32N 52°24' E 004°46'0 0.0
2016-Jan-30 06:32N 52°24' E 004°46'0 0.0
2016-Jan-30 05:32N 52°24' E 004°46'  
Track history (hours):
 
Tides and Currents Weather Stations Pressure Air Temp Water Temp Dewpoint Dewpoint Depression Visibility Wind Speed Wind Dir Waves Ship Positions

Torm Republican

Last reported at 2016-Feb-09 05:20 UTC. Time now 2016-Feb-12 18:12 UTC.
Position N 36°11' E 014°51'.

Length 183 m; draft 11.8 m.

Type: Ship (hazmat cat A). MMSI: 220560000.

Date/timePositionNaut miles runAvg speedWind from/ knotsBaromVisibWave heightAir tempDewpointWater temp
2016-Feb-09 05:20N 36°11' E 014°51'1012.7
2016-Feb-09 04:33N 36°15' E 014°40'1312.7
2016-Feb-09 03:33N 36°19' E 014°25'1313.0
2016-Feb-09 02:33N 36°23' E 014°09'1613.4
2016-Feb-09 01:21N 36°28' E 013°51'  
2016-Feb-06 00:25N 36°01' W 005°06'1214.1
2016-Feb-05 23:33N 35°58' W 005°20'8211.7
2016-Feb-05 16:32N 36°04' W 007°02'1312.1
2016-Feb-05 15:30N 36°06' W 007°17'1312.2
2016-Feb-05 14:28N 36°09' W 007°32'3512.1
2016-Feb-05 11:33N 36°17' W 008°14'1212.0
2016-Feb-05 10:33N 36°20' W 008°29'1211.6
2016-Feb-05 09:33N 36°23' W 008°43'1211.1
2016-Feb-05 08:30N 36°25' W 008°57'1111.1
2016-Feb-05 07:33N 36°28' W 009°10'1311.2
2016-Feb-05 06:21N 36°34' W 009°25'911.0
2016-Feb-05 05:30N 36°41' W 009°33'1010.9
2016-Feb-05 04:33N 36°50' W 009°39'1211.7
2016-Feb-05 03:30N 37°01' W 009°43'1211.1
2016-Feb-05 02:26N 37°13' W 009°46'1112.9
2016-Feb-05 01:33N 37°24' W 009°49'1211.5
2016-Feb-05 00:33N 37°35' W 009°52'1413.6
2016-Feb-04 23:32N 37°49' W 009°56'1312.3
2016-Feb-04 22:30N 38°01' W 009°60'1312.6
2016-Feb-04 21:27N 38°14' W 010°04'1213.0
2016-Feb-04 20:33N 38°26' W 010°07'1312.8
2016-Feb-04 19:33N 38°38' W 010°11'1611.7
2016-Feb-04 18:12N 38°54' W 010°12'812.6
2016-Feb-04 17:33N 39°02' W 010°12'1313.3
2016-Feb-04 16:33N 39°15' W 010°12'1312.9
2016-Feb-04 15:33N 39°28' W 010°12'1313.0
2016-Feb-04 14:33N 39°41' W 010°11'1212.1
2016-Feb-04 13:33N 39°53' W 010°11'1913.2
2016-Feb-04 12:06N 40°12' W 010°12'711.9
2016-Feb-04 11:33N 40°19' W 010°12'1413.1
2016-Feb-04 10:30N 40°33' W 010°12'1213.0
2016-Feb-04 09:33N 40°45' W 010°12'1212.2
2016-Feb-04 08:33N 40°57' W 010°12'1312.6
2016-Feb-04 07:33N 41°10' W 010°12'1312.7
2016-Feb-04 06:33N 41°23' W 010°13'1312.8
2016-Feb-04 05:33N 41°35' W 010°13'1211.8
2016-Feb-04 04:30N 41°48' W 010°12'  
2016-Feb-01 11:22N 50°26' W 000°20'8 9.3
2016-Feb-01 10:28N 50°28' W 000°07'9 9.9
2016-Feb-01 09:33N 50°30' E 000°06'1110.8
2016-Feb-01 08:33N 50°32' E 000°23'1111.1
2016-Feb-01 07:33N 50°37' E 000°39'1111.1
2016-Feb-01 06:33N 50°43' E 000°53'1110.6
2016-Feb-01 05:33N 50°49' E 001°07'10 9.8
2016-Feb-01 04:33N 50°55' E 001°19'10 9.6
2016-Feb-01 03:33N 51°03' E 001°29'1110.8
2016-Feb-01 02:33N 51°10' E 001°41'1212.1
2016-Feb-01 01:33N 51°21' E 001°51'1313.0
2016-Feb-01 00:33N 51°32' E 002°02'1412.8
2016-Jan-31 23:27N 51°41' E 002°19'7610.9
2016-Jan-31 16:27N 52°31' E 003°53'1112.3
2016-Jan-31 15:33N 52°31' E 004°11'1110.7
2016-Jan-31 14:33N 52°29' E 004°28'5 5.2
2016-Jan-31 13:33N 52°28' E 004°37'4 4.3
2016-Jan-31 12:34N 52°26' E 004°43'3 2.9
2016-Jan-31 11:32N 52°24' E 004°46'0 0.0
2016-Jan-31 10:32N 52°24' E 004°46'0 0.0
2016-Jan-31 09:32N 52°24' E 004°46'0 0.0
2016-Jan-31 08:32N 52°24' E 004°46'0 0.0
2016-Jan-31 07:32N 52°24' E 004°46'0 0.0
2016-Jan-31 06:32N 52°24' E 004°46'0 0.0
2016-Jan-31 05:32N 52°24' E 004°46'0 0.0
2016-Jan-31 04:32N 52°24' E 004°46'0 0.0
2016-Jan-31 03:32N 52°24' E 004°46'0 0.0
2016-Jan-31 02:32N 52°24' E 004°46'0 0.0
2016-Jan-31 01:32N 52°24' E 004°46'0 0.0
2016-Jan-31 00:32N 52°24' E 004°46'0 0.0
2016-Jan-30 23:32N 52°24' E 004°46'0 0.0
2016-Jan-30 22:32N 52°24' E 004°46'0 0.0
2016-Jan-30 21:32N 52°24' E 004°46'0 0.0
2016-Jan-30 20:32N 52°24' E 004°46'0 0.0
2016-Jan-30 19:29N 52°24' E 004°46'0 0.0
2016-Jan-30 18:32N 52°24' E 004°46'0 0.0
2016-Jan-30 17:32N 52°24' E 004°46'0 0.0
2016-Jan-30 16:32N 52°24' E 004°46'0 0.0
2016-Jan-30 15:32N 52°24' E 004°46'0 0.0
2016-Jan-30 14:32N 52°24' E 004°46'0 0.0
2016-Jan-30 13:29N 52°24' E 004°46'0 0.0
2016-Jan-30 12:32N 52°24' E 004°46'0 0.0
2016-Jan-30 11:32N 52°24' E 004°46'0 0.0
2016-Jan-30 10:32N 52°24' E 004°46'0 0.0
2016-Jan-30 09:32N 52°24' E 004°46'0 0.0
2016-Jan-30 08:32N 52°24' E 004°46'0 0.0
2016-Jan-30 07:32N 52°24' E 004°46'0 0.0
2016-Jan-30 06:32N 52°24' E 004°46'0 0.0
2016-Jan-30 05:32N 52°24' E 004°46'  

Dump ship's entire track history